sensor_id;sensor_type;location;lat;lon;timestamp;temperature;humidity
40868;DHT22;26586;50.708;22.412;2023-02-28T00:01:14;12.80;34.90
40868;DHT22;26586;50.708;22.412;2023-02-28T00:03:41;12.80;34.90
40868;DHT22;26586;50.708;22.412;2023-02-28T00:06:08;12.80;35.30
40868;DHT22;26586;50.708;22.412;2023-02-28T00:08:35;12.80;35.30
40868;DHT22;26586;50.708;22.412;2023-02-28T00:11:07;12.80;35.20
40868;DHT22;26586;50.708;22.412;2023-02-28T00:13:40;12.80;35.40
40868;DHT22;26586;50.708;22.412;2023-02-28T00:16:09;12.80;35.20
40868;DHT22;26586;50.708;22.412;2023-02-28T00:18:36;12.80;35.60
40868;DHT22;26586;50.708;22.412;2023-02-28T00:21:03;12.80;35.60
40868;DHT22;26586;50.708;22.412;2023-02-28T00:23:29;12.70;35.50
40868;DHT22;26586;50.708;22.412;2023-02-28T00:25:55;12.70;35.80
40868;DHT22;26586;50.708;22.412;2023-02-28T00:28:22;12.70;35.50
40868;DHT22;26586;50.708;22.412;2023-02-28T00:30:49;12.70;35.80
40868;DHT22;26586;50.708;22.412;2023-02-28T00:33:15;12.70;35.80
40868;DHT22;26586;50.708;22.412;2023-02-28T00:35:41;12.70;35.80
40868;DHT22;26586;50.708;22.412;2023-02-28T00:38:10;12.70;35.50
40868;DHT22;26586;50.708;22.412;2023-02-28T00:40:36;12.60;35.50
40868;DHT22;26586;50.708;22.412;2023-02-28T00:43:02;12.60;35.50
40868;DHT22;26586;50.708;22.412;2023-02-28T00:45:30;12.60;35.60
40868;DHT22;26586;50.708;22.412;2023-02-28T00:47:56;12.60;35.50
40868;DHT22;26586;50.708;22.412;2023-02-28T00:50:22;12.50;35.50
40868;DHT22;26586;50.708;22.412;2023-02-28T00:52:48;12.50;35.60
40868;DHT22;26586;50.708;22.412;2023-02-28T00:55:15;12.50;35.80
40868;DHT22;26586;50.708;22.412;2023-02-28T00:57:41;12.50;36.00
40868;DHT22;26586;50.708;22.412;2023-02-28T01:00:09;12.50;35.90
40868;DHT22;26586;50.708;22.412;2023-02-28T01:02:35;12.50;35.90
40868;DHT22;26586;50.708;22.412;2023-02-28T01:05:02;12.50;36.40
40868;DHT22;26586;50.708;22.412;2023-02-28T01:07:28;12.50;35.90
40868;DHT22;26586;50.708;22.412;2023-02-28T01:09:54;12.50;36.00
40868;DHT22;26586;50.708;22.412;2023-02-28T01:12:20;12.40;36.10
40868;DHT22;26586;50.708;22.412;2023-02-28T01:14:47;12.40;36.10
40868;DHT22;26586;50.708;22.412;2023-02-28T01:17:13;12.40;36.30
40868;DHT22;26586;50.708;22.412;2023-02-28T01:19:39;12.40;36.70
40868;DHT22;26586;50.708;22.412;2023-02-28T01:22:07;12.40;36.80
40868;DHT22;26586;50.708;22.412;2023-02-28T01:24:33;12.40;36.60
40868;DHT22;26586;50.708;22.412;2023-02-28T01:26:59;12.40;36.80
40868;DHT22;26586;50.708;22.412;2023-02-28T01:29:25;12.40;36.90
40868;DHT22;26586;50.708;22.412;2023-02-28T01:31:51;12.30;37.80
40868;DHT22;26586;50.708;22.412;2023-02-28T01:34:18;12.40;37.90
40868;DHT22;26586;50.708;22.412;2023-02-28T01:36:45;12.40;38.00
40868;DHT22;26586;50.708;22.412;2023-02-28T01:39:12;12.30;38.10
40868;DHT22;26586;50.708;22.412;2023-02-28T01:41:39;12.30;37.60
40868;DHT22;26586;50.708;22.412;2023-02-28T01:47:10;12.30;37.70
40868;DHT22;26586;50.708;22.412;2023-02-28T01:49:36;12.30;37.60
40868;DHT22;26586;50.708;22.412;2023-02-28T01:52:03;12.30;37.70
40868;DHT22;26586;50.708;22.412;2023-02-28T01:54:34;12.30;37.90
40868;DHT22;26586;50.708;22.412;2023-02-28T01:57:10;12.30;37.80
40868;DHT22;26586;50.708;22.412;2023-02-28T01:59:46;12.30;37.90
40868;DHT22;26586;50.708;22.412;2023-02-28T02:02:18;12.30;38.80
40868;DHT22;26586;50.708;22.412;2023-02-28T02:07:16;12.30;39.70
40868;DHT22;26586;50.708;22.412;2023-02-28T02:09:43;12.30;40.00
40868;DHT22;26586;50.708;22.412;2023-02-28T02:12:43;12.30;40.50
40868;DHT22;26586;50.708;22.412;2023-02-28T02:15:34;12.30;40.40
40868;DHT22;26586;50.708;22.412;2023-02-28T02:18:18;12.30;40.90
40868;DHT22;26586;50.708;22.412;2023-02-28T02:31:28;12.30;40.80
40868;DHT22;26586;50.708;22.412;2023-02-28T02:36:42;12.30;40.20
40868;DHT22;26586;50.708;22.412;2023-02-28T02:42:05;12.20;39.70
40868;DHT22;26586;50.708;22.412;2023-02-28T02:44:43;12.30;40.70
40868;DHT22;26586;50.708;22.412;2023-02-28T02:47:18;12.20;40.30
40868;DHT22;26586;50.708;22.412;2023-02-28T02:49:49;12.20;40.10
40868;DHT22;26586;50.708;22.412;2023-02-28T02:52:20;12.20;41.30
40868;DHT22;26586;50.708;22.412;2023-02-28T02:54:48;12.20;40.50
40868;DHT22;26586;50.708;22.412;2023-02-28T02:57:21;12.20;40.60
40868;DHT22;26586;50.708;22.412;2023-02-28T02:59:50;12.20;41.30
40868;DHT22;26586;50.708;22.412;2023-02-28T03:02:18;12.20;40.90
40868;DHT22;26586;50.708;22.412;2023-02-28T03:04:59;12.20;41.30
40868;DHT22;26586;50.708;22.412;2023-02-28T03:07:28;12.20;40.80
40868;DHT22;26586;50.708;22.412;2023-02-28T03:09:56;12.20;40.30
40868;DHT22;26586;50.708;22.412;2023-02-28T03:12:32;12.20;40.20
40868;DHT22;26586;50.708;22.412;2023-02-28T03:15:26;12.20;39.50
40868;DHT22;26586;50.708;22.412;2023-02-28T03:18:00;12.20;39.50
40868;DHT22;26586;50.708;22.412;2023-02-28T03:20:36;12.20;40.20
40868;DHT22;26586;50.708;22.412;2023-02-28T03:23:45;12.20;39.80
40868;DHT22;26586;50.708;22.412;2023-02-28T03:26:21;12.20;39.90
40868;DHT22;26586;50.708;22.412;2023-02-28T03:31:22;12.20;39.10
40868;DHT22;26586;50.708;22.412;2023-02-28T03:34:03;12.20;39.50
40868;DHT22;26586;50.708;22.412;2023-02-28T03:36:45;12.10;40.60
40868;DHT22;26586;50.708;22.412;2023-02-28T03:39:34;12.20;40.60
40868;DHT22;26586;50.708;22.412;2023-02-28T03:42:05;12.20;41.00
40868;DHT22;26586;50.708;22.412;2023-02-28T03:44:39;12.20;41.20
40868;DHT22;26586;50.708;22.412;2023-02-28T03:49:54;12.20;42.40
40868;DHT22;26586;50.708;22.412;2023-02-28T03:52:25;12.20;43.30
40868;DHT22;26586;50.708;22.412;2023-02-28T03:54:56;12.20;43.10
40868;DHT22;26586;50.708;22.412;2023-02-28T04:00:21;12.20;42.30
40868;DHT22;26586;50.708;22.412;2023-02-28T04:02:50;12.20;41.60
40868;DHT22;26586;50.708;22.412;2023-02-28T04:05:20;12.20;38.80
40868;DHT22;26586;50.708;22.412;2023-02-28T04:07:46;12.20;39.20
40868;DHT22;26586;50.708;22.412;2023-02-28T04:10:13;12.20;39.60
40868;DHT22;26586;50.708;22.412;2023-02-28T04:12:39;12.20;40.30
40868;DHT22;26586;50.708;22.412;2023-02-28T04:15:06;12.30;41.90
40868;DHT22;26586;50.708;22.412;2023-02-28T04:17:32;12.30;41.20
40868;DHT22;26586;50.708;22.412;2023-02-28T04:19:58;12.30;42.70
40868;DHT22;26586;50.708;22.412;2023-02-28T04:22:24;12.30;41.50
40868;DHT22;26586;50.708;22.412;2023-02-28T04:24:53;12.30;41.80
40868;DHT22;26586;50.708;22.412;2023-02-28T04:27:20;12.30;39.40
40868;DHT22;26586;50.708;22.412;2023-02-28T04:29:47;12.30;41.00
40868;DHT22;26586;50.708;22.412;2023-02-28T04:32:13;12.30;39.90
40868;DHT22;26586;50.708;22.412;2023-02-28T04:34:39;12.30;39.30
40868;DHT22;26586;50.708;22.412;2023-02-28T04:37:06;12.30;37.00
40868;DHT22;26586;50.708;22.412;2023-02-28T04:39:35;12.30;34.80
40868;DHT22;26586;50.708;22.412;2023-02-28T04:42:02;12.30;35.90
40868;DHT22;26586;50.708;22.412;2023-02-28T04:44:28;12.30;34.90
40868;DHT22;26586;50.708;22.412;2023-02-28T04:46:54;12.30;36.60
40868;DHT22;26586;50.708;22.412;2023-02-28T04:49:21;12.30;35.90
40868;DHT22;26586;50.708;22.412;2023-02-28T04:51:47;12.30;38.40
40868;DHT22;26586;50.708;22.412;2023-02-28T04:54:13;12.30;38.40
40868;DHT22;26586;50.708;22.412;2023-02-28T04:56:39;12.30;38.90
40868;DHT22;26586;50.708;22.412;2023-02-28T04:59:06;12.30;39.50
40868;DHT22;26586;50.708;22.412;2023-02-28T05:01:33;12.30;39.60
40868;DHT22;26586;50.708;22.412;2023-02-28T05:04:01;12.30;40.80
40868;DHT22;26586;50.708;22.412;2023-02-28T05:06:29;12.30;41.50
40868;DHT22;26586;50.708;22.412;2023-02-28T05:08:56;12.30;40.70
40868;DHT22;26586;50.708;22.412;2023-02-28T05:11:30;12.30;42.50
40868;DHT22;26586;50.708;22.412;2023-02-28T05:14:05;12.40;41.80
40868;DHT22;26586;50.708;22.412;2023-02-28T05:16:32;12.40;43.60
40868;DHT22;26586;50.708;22.412;2023-02-28T05:18:58;12.40;41.90
40868;DHT22;26586;50.708;22.412;2023-02-28T05:21:33;12.40;42.70
40868;DHT22;26586;50.708;22.412;2023-02-28T05:24:03;12.50;43.30
40868;DHT22;26586;50.708;22.412;2023-02-28T05:26:29;12.50;42.90
40868;DHT22;26586;50.708;22.412;2023-02-28T05:28:56;12.50;43.30
40868;DHT22;26586;50.708;22.412;2023-02-28T05:31:23;12.50;43.00
40868;DHT22;26586;50.708;22.412;2023-02-28T05:33:50;12.60;43.00
40868;DHT22;26586;50.708;22.412;2023-02-28T05:36:17;12.60;43.30
40868;DHT22;26586;50.708;22.412;2023-02-28T05:38:45;12.60;43.70
40868;DHT22;26586;50.708;22.412;2023-02-28T05:41:11;12.60;43.20
40868;DHT22;26586;50.708;22.412;2023-02-28T05:43:37;12.70;42.00
40868;DHT22;26586;50.708;22.412;2023-02-28T05:46:08;12.70;42.50
40868;DHT22;26586;50.708;22.412;2023-02-28T05:48:36;12.70;43.10
40868;DHT22;26586;50.708;22.412;2023-02-28T05:51:03;12.70;43.30
40868;DHT22;26586;50.708;22.412;2023-02-28T05:53:30;12.80;43.80
40868;DHT22;26586;50.708;22.412;2023-02-28T05:55:57;12.80;43.40
40868;DHT22;26586;50.708;22.412;2023-02-28T05:58:23;12.90;43.10
40868;DHT22;26586;50.708;22.412;2023-02-28T06:00:51;12.90;43.30
40868;DHT22;26586;50.708;22.412;2023-02-28T06:03:17;12.90;43.70
40868;DHT22;26586;50.708;22.412;2023-02-28T06:05:43;12.90;44.30
40868;DHT22;26586;50.708;22.412;2023-02-28T06:08:10;13.00;44.40
40868;DHT22;26586;50.708;22.412;2023-02-28T06:10:36;13.00;43.00
40868;DHT22;26586;50.708;22.412;2023-02-28T06:13:03;13.00;43.70
40868;DHT22;26586;50.708;22.412;2023-02-28T06:15:30;13.10;44.40
40868;DHT22;26586;50.708;22.412;2023-02-28T06:17:57;13.10;42.80
40868;DHT22;26586;50.708;22.412;2023-02-28T06:20:24;13.10;43.20
40868;DHT22;26586;50.708;22.412;2023-02-28T06:22:58;13.10;43.30
40868;DHT22;26586;50.708;22.412;2023-02-28T06:25:27;13.20;43.00
40868;DHT22;26586;50.708;22.412;2023-02-28T06:27:54;13.20;42.90
40868;DHT22;26586;50.708;22.412;2023-02-28T06:30:21;13.20;43.70
40868;DHT22;26586;50.708;22.412;2023-02-28T06:32:51;13.20;43.20
40868;DHT22;26586;50.708;22.412;2023-02-28T06:35:18;13.30;43.30
40868;DHT22;26586;50.708;22.412;2023-02-28T06:37:44;13.30;44.20
40868;DHT22;26586;50.708;22.412;2023-02-28T06:40:10;13.30;43.40
40868;DHT22;26586;50.708;22.412;2023-02-28T06:42:37;13.30;44.60
40868;DHT22;26586;50.708;22.412;2023-02-28T06:45:03;13.40;44.40
40868;DHT22;26586;50.708;22.412;2023-02-28T06:47:39;13.40;43.70
40868;DHT22;26586;50.708;22.412;2023-02-28T06:50:06;13.40;41.80
40868;DHT22;26586;50.708;22.412;2023-02-28T06:52:32;13.40;41.00
40868;DHT22;26586;50.708;22.412;2023-02-28T06:55:02;13.40;41.00
40868;DHT22;26586;50.708;22.412;2023-02-28T06:57:30;13.50;42.20
40868;DHT22;26586;50.708;22.412;2023-02-28T07:00:02;13.50;38.20
40868;DHT22;26586;50.708;22.412;2023-02-28T07:02:29;13.50;38.10
40868;DHT22;26586;50.708;22.412;2023-02-28T07:04:56;13.50;40.20
40868;DHT22;26586;50.708;22.412;2023-02-28T07:07:22;13.50;37.80
40868;DHT22;26586;50.708;22.412;2023-02-28T07:09:48;13.50;37.90
40868;DHT22;26586;50.708;22.412;2023-02-28T07:12:15;13.50;40.10
40868;DHT22;26586;50.708;22.412;2023-02-28T07:14:41;13.50;38.10
40868;DHT22;26586;50.708;22.412;2023-02-28T07:17:09;13.50;38.70
40868;DHT22;26586;50.708;22.412;2023-02-28T07:19:36;13.50;38.10
40868;DHT22;26586;50.708;22.412;2023-02-28T07:22:02;13.50;37.00
40868;DHT22;26586;50.708;22.412;2023-02-28T07:24:29;13.60;35.80
40868;DHT22;26586;50.708;22.412;2023-02-28T07:26:55;13.60;35.50
40868;DHT22;26586;50.708;22.412;2023-02-28T07:29:22;13.60;33.80
40868;DHT22;26586;50.708;22.412;2023-02-28T07:31:48;13.60;36.40
40868;DHT22;26586;50.708;22.412;2023-02-28T07:34:16;13.60;34.50
40868;DHT22;26586;50.708;22.412;2023-02-28T07:36:42;13.60;35.20
40868;DHT22;26586;50.708;22.412;2023-02-28T07:39:08;13.60;33.30
40868;DHT22;26586;50.708;22.412;2023-02-28T07:41:35;13.60;32.70
40868;DHT22;26586;50.708;22.412;2023-02-28T07:44:05;13.60;34.40
40868;DHT22;26586;50.708;22.412;2023-02-28T07:46:31;13.60;33.20
40868;DHT22;26586;50.708;22.412;2023-02-28T07:49:01;13.60;38.00
40868;DHT22;26586;50.708;22.412;2023-02-28T07:51:31;13.60;39.00
40868;DHT22;26586;50.708;22.412;2023-02-28T07:53:58;13.70;37.00
40868;DHT22;26586;50.708;22.412;2023-02-28T07:56:24;13.70;39.30
40868;DHT22;26586;50.708;22.412;2023-02-28T07:58:50;13.70;37.20
40868;DHT22;26586;50.708;22.412;2023-02-28T08:01:16;13.70;34.40
40868;DHT22;26586;50.708;22.412;2023-02-28T08:03:44;13.80;37.00
40868;DHT22;26586;50.708;22.412;2023-02-28T08:06:17;13.80;43.10
40868;DHT22;26586;50.708;22.412;2023-02-28T08:08:43;13.90;49.70
40868;DHT22;26586;50.708;22.412;2023-02-28T08:11:10;14.00;41.60
40868;DHT22;26586;50.708;22.412;2023-02-28T08:13:36;14.10;39.70
40868;DHT22;26586;50.708;22.412;2023-02-28T08:16:02;14.10;35.10
40868;DHT22;26586;50.708;22.412;2023-02-28T08:18:29;14.10;33.10
40868;DHT22;26586;50.708;22.412;2023-02-28T08:20:55;14.20;32.20
40868;DHT22;26586;50.708;22.412;2023-02-28T08:23:22;14.20;34.30
40868;DHT22;26586;50.708;22.412;2023-02-28T08:25:55;14.30;36.00
40868;DHT22;26586;50.708;22.412;2023-02-28T08:28:22;14.40;30.00
40868;DHT22;26586;50.708;22.412;2023-02-28T08:30:48;14.50;30.40
40868;DHT22;26586;50.708;22.412;2023-02-28T08:33:14;14.50;32.60
40868;DHT22;26586;50.708;22.412;2023-02-28T08:35:41;14.60;32.80
40868;DHT22;26586;50.708;22.412;2023-02-28T08:38:07;14.70;30.80
40868;DHT22;26586;50.708;22.412;2023-02-28T08:40:33;14.80;29.30
40868;DHT22;26586;50.708;22.412;2023-02-28T08:42:59;14.90;29.40
40868;DHT22;26586;50.708;22.412;2023-02-28T08:45:26;15.00;30.40
40868;DHT22;26586;50.708;22.412;2023-02-28T08:47:54;15.00;29.10
40868;DHT22;26586;50.708;22.412;2023-02-28T08:50:21;15.10;28.20
40868;DHT22;26586;50.708;22.412;2023-02-28T08:52:47;15.20;28.20
40868;DHT22;26586;50.708;22.412;2023-02-28T08:55:14;15.30;28.50
40868;DHT22;26586;50.708;22.412;2023-02-28T08:57:40;15.40;29.10
40868;DHT22;26586;50.708;22.412;2023-02-28T09:00:07;15.50;29.30
40868;DHT22;26586;50.708;22.412;2023-02-28T09:02:33;15.60;28.70
40868;DHT22;26586;50.708;22.412;2023-02-28T09:05:00;15.70;29.00
40868;DHT22;26586;50.708;22.412;2023-02-28T09:07:26;15.80;28.20
40868;DHT22;26586;50.708;22.412;2023-02-28T09:09:52;15.90;28.10
40868;DHT22;26586;50.708;22.412;2023-02-28T09:12:26;16.00;28.70
40868;DHT22;26586;50.708;22.412;2023-02-28T09:14:53;16.10;28.00
40868;DHT22;26586;50.708;22.412;2023-02-28T09:17:20;16.20;28.30
40868;DHT22;26586;50.708;22.412;2023-02-28T09:19:48;16.30;28.00
40868;DHT22;26586;50.708;22.412;2023-02-28T09:22:14;16.40;28.10
40868;DHT22;26586;50.708;22.412;2023-02-28T09:24:41;16.40;28.20
40868;DHT22;26586;50.708;22.412;2023-02-28T09:27:08;16.50;27.60
40868;DHT22;26586;50.708;22.412;2023-02-28T09:29:34;16.50;28.50
40868;DHT22;26586;50.708;22.412;2023-02-28T09:32:01;16.60;28.20
40868;DHT22;26586;50.708;22.412;2023-02-28T09:34:28;16.60;28.60
40868;DHT22;26586;50.708;22.412;2023-02-28T09:36:56;16.70;28.20
40868;DHT22;26586;50.708;22.412;2023-02-28T09:39:23;16.70;28.10
40868;DHT22;26586;50.708;22.412;2023-02-28T09:41:51;16.80;27.70
40868;DHT22;26586;50.708;22.412;2023-02-28T09:44:35;16.80;27.50
40868;DHT22;26586;50.708;22.412;2023-02-28T09:49:47;16.90;27.30
40868;DHT22;26586;50.708;22.412;2023-02-28T09:52:18;17.00;27.20
40868;DHT22;26586;50.708;22.412;2023-02-28T09:54:46;17.00;27.20
40868;DHT22;26586;50.708;22.412;2023-02-28T10:00:02;17.20;27.50
40868;DHT22;26586;50.708;22.412;2023-02-28T10:05:30;17.20;28.40
40868;DHT22;26586;50.708;22.412;2023-02-28T10:08:19;17.30;28.00
40868;DHT22;26586;50.708;22.412;2023-02-28T10:10:55;17.30;27.80
40868;DHT22;26586;50.708;22.412;2023-02-28T10:13:27;17.40;27.90
40868;DHT22;26586;50.708;22.412;2023-02-28T10:16:00;17.40;27.90
40868;DHT22;26586;50.708;22.412;2023-02-28T10:18:33;17.40;27.70
40868;DHT22;26586;50.708;22.412;2023-02-28T10:21:03;17.40;27.70
40868;DHT22;26586;50.708;22.412;2023-02-28T10:23:34;17.50;27.70
40868;DHT22;26586;50.708;22.412;2023-02-28T10:26:11;17.50;27.90
40868;DHT22;26586;50.708;22.412;2023-02-28T10:28:38;17.50;27.70
40868;DHT22;26586;50.708;22.412;2023-02-28T10:31:05;17.50;27.70
40868;DHT22;26586;50.708;22.412;2023-02-28T10:33:36;17.60;27.60
40868;DHT22;26586;50.708;22.412;2023-02-28T10:36:03;17.60;27.90
40868;DHT22;26586;50.708;22.412;2023-02-28T10:38:37;17.60;27.90
40868;DHT22;26586;50.708;22.412;2023-02-28T10:43:39;17.70;28.20
40868;DHT22;26586;50.708;22.412;2023-02-28T10:48:47;17.70;28.30
40868;DHT22;26586;50.708;22.412;2023-02-28T10:51:18;17.70;28.40
40868;DHT22;26586;50.708;22.412;2023-02-28T10:53:54;17.70;28.50
40868;DHT22;26586;50.708;22.412;2023-02-28T10:56:23;17.70;28.40
40868;DHT22;26586;50.708;22.412;2023-02-28T11:01:41;17.70;28.80
40868;DHT22;26586;50.708;22.412;2023-02-28T11:04:34;17.70;28.60
40868;DHT22;26586;50.708;22.412;2023-02-28T11:07:18;17.70;28.60
40868;DHT22;26586;50.708;22.412;2023-02-28T11:09:55;17.70;29.00
40868;DHT22;26586;50.708;22.412;2023-02-28T11:12:23;17.70;28.90
40868;DHT22;26586;50.708;22.412;2023-02-28T11:15:04;17.70;28.80
40868;DHT22;26586;50.708;22.412;2023-02-28T11:17:32;17.70;28.60
40868;DHT22;26586;50.708;22.412;2023-02-28T11:20:07;17.70;28.80
40868;DHT22;26586;50.708;22.412;2023-02-28T11:22:45;17.70;28.60
40868;DHT22;26586;50.708;22.412;2023-02-28T11:25:25;17.70;28.90
40868;DHT22;26586;50.708;22.412;2023-02-28T11:28:04;17.60;28.80
40868;DHT22;26586;50.708;22.412;2023-02-28T11:30:41;17.60;28.80
40868;DHT22;26586;50.708;22.412;2023-02-28T11:35:53;17.60;28.80
40868;DHT22;26586;50.708;22.412;2023-02-28T11:38:21;17.60;28.90
40868;DHT22;26586;50.708;22.412;2023-02-28T11:40:55;17.60;28.90
40868;DHT22;26586;50.708;22.412;2023-02-28T11:43:44;17.60;28.90
40868;DHT22;26586;50.708;22.412;2023-02-28T11:58:03;17.50;28.70
40868;DHT22;26586;50.708;22.412;2023-02-28T12:03:31;17.40;29.20
40868;DHT22;26586;50.708;22.412;2023-02-28T12:06:31;17.30;29.10
40868;DHT22;26586;50.708;22.412;2023-02-28T12:12:05;17.30;28.80
40868;DHT22;26586;50.708;22.412;2023-02-28T12:28:23;17.10;28.80
40868;DHT22;26586;50.708;22.412;2023-02-28T12:31:06;17.00;28.70
40868;DHT22;26586;50.708;22.412;2023-02-28T12:33:51;17.00;29.10
40868;DHT22;26586;50.708;22.412;2023-02-28T12:36:19;17.00;28.80
40868;DHT22;26586;50.708;22.412;2023-02-28T12:44:17;16.90;29.10
40868;DHT22;26586;50.708;22.412;2023-02-28T12:46:50;17.00;28.80
40868;DHT22;26586;50.708;22.412;2023-02-28T12:49:33;16.90;28.70
40868;DHT22;26586;50.708;22.412;2023-02-28T12:52:01;17.00;28.80
40868;DHT22;26586;50.708;22.412;2023-02-28T12:57:18;17.00;28.50
40868;DHT22;26586;50.708;22.412;2023-02-28T12:59:55;17.00;28.60
40868;DHT22;26586;50.708;22.412;2023-02-28T13:08:15;17.00;29.00
40868;DHT22;26586;50.708;22.412;2023-02-28T13:10:49;17.00;29.40
40868;DHT22;26586;50.708;22.412;2023-02-28T13:13:22;17.10;29.80
40868;DHT22;26586;50.708;22.412;2023-02-28T13:18:50;17.10;29.60
40868;DHT22;26586;50.708;22.412;2023-02-28T13:21:27;17.20;30.30
40868;DHT22;26586;50.708;22.412;2023-02-28T13:29:35;17.30;30.80
40868;DHT22;26586;50.708;22.412;2023-02-28T13:34:39;17.30;31.10
40868;DHT22;26586;50.708;22.412;2023-02-28T13:42:23;17.40;33.00
40868;DHT22;26586;50.708;22.412;2023-02-28T13:47:40;17.40;31.80
40868;DHT22;26586;50.708;22.412;2023-02-28T13:56:06;17.40;34.70
40868;DHT22;26586;50.708;22.412;2023-02-28T14:06:54;17.50;31.40
40868;DHT22;26586;50.708;22.412;2023-02-28T14:09:30;17.50;33.30
40868;DHT22;26586;50.708;22.412;2023-02-28T14:12:18;17.40;32.10
40868;DHT22;26586;50.708;22.412;2023-02-28T14:17:15;17.40;31.30
40868;DHT22;26586;50.708;22.412;2023-02-28T14:19:46;17.40;29.80
40868;DHT22;26586;50.708;22.412;2023-02-28T14:25:22;17.40;30.70
40868;DHT22;26586;50.708;22.412;2023-02-28T14:28:08;17.40;31.10
40868;DHT22;26586;50.708;22.412;2023-02-28T14:36:34;17.40;31.60
40868;DHT22;26586;50.708;22.412;2023-02-28T14:39:07;17.40;32.80
40868;DHT22;26586;50.708;22.412;2023-02-28T14:41:36;17.40;33.00
40868;DHT22;26586;50.708;22.412;2023-02-28T14:44:25;17.40;31.80
40868;DHT22;26586;50.708;22.412;2023-02-28T14:49:37;17.40;33.50
40868;DHT22;26586;50.708;22.412;2023-02-28T14:52:28;17.30;31.70
40868;DHT22;26586;50.708;22.412;2023-02-28T14:54:56;17.30;31.50
40868;DHT22;26586;50.708;22.412;2023-02-28T14:57:32;17.30;32.90
40868;DHT22;26586;50.708;22.412;2023-02-28T15:02:37;17.30;31.10
40868;DHT22;26586;50.708;22.412;2023-02-28T15:07:39;17.30;32.00
40868;DHT22;26586;50.708;22.412;2023-02-28T15:12:35;17.20;32.30
40868;DHT22;26586;50.708;22.412;2023-02-28T15:15:02;17.20;32.70
40868;DHT22;26586;50.708;22.412;2023-02-28T15:17:29;17.20;31.60
40868;DHT22;26586;50.708;22.412;2023-02-28T15:19:55;17.20;32.70
40868;DHT22;26586;50.708;22.412;2023-02-28T15:22:36;17.20;30.40
40868;DHT22;26586;50.708;22.412;2023-02-28T15:25:05;17.20;31.70
40868;DHT22;26586;50.708;22.412;2023-02-28T15:27:33;17.10;30.70
40868;DHT22;26586;50.708;22.412;2023-02-28T15:30:13;17.10;32.30
40868;DHT22;26586;50.708;22.412;2023-02-28T15:32:41;17.10;31.10
40868;DHT22;26586;50.708;22.412;2023-02-28T15:37:57;17.00;32.50
40868;DHT22;26586;50.708;22.412;2023-02-28T15:40:30;17.10;31.70
40868;DHT22;26586;50.708;22.412;2023-02-28T15:43:16;17.00;32.40
40868;DHT22;26586;50.708;22.412;2023-02-28T15:45:48;17.00;31.60
40868;DHT22;26586;50.708;22.412;2023-02-28T15:51:08;17.00;30.80
40868;DHT22;26586;50.708;22.412;2023-02-28T15:53:47;17.00;32.00
40868;DHT22;26586;50.708;22.412;2023-02-28T15:56:31;16.90;31.60
40868;DHT22;26586;50.708;22.412;2023-02-28T15:59:03;16.90;30.80
40868;DHT22;26586;50.708;22.412;2023-02-28T16:01:33;16.90;31.10
40868;DHT22;26586;50.708;22.412;2023-02-28T16:04:05;16.90;31.10
40868;DHT22;26586;50.708;22.412;2023-02-28T16:06:43;16.90;31.40
40868;DHT22;26586;50.708;22.412;2023-02-28T16:09:12;16.80;31.20
40868;DHT22;26586;50.708;22.412;2023-02-28T16:11:48;16.80;31.40
40868;DHT22;26586;50.708;22.412;2023-02-28T16:14:20;16.80;31.70
40868;DHT22;26586;50.708;22.412;2023-02-28T16:16:51;16.80;31.70
40868;DHT22;26586;50.708;22.412;2023-02-28T16:19:18;16.80;31.80
40868;DHT22;26586;50.708;22.412;2023-02-28T16:21:45;16.70;31.50
40868;DHT22;26586;50.708;22.412;2023-02-28T16:24:12;16.70;31.20
40868;DHT22;26586;50.708;22.412;2023-02-28T16:26:40;16.70;30.80
40868;DHT22;26586;50.708;22.412;2023-02-28T16:29:09;16.60;31.20
40868;DHT22;26586;50.708;22.412;2023-02-28T16:31:38;16.60;31.20
40868;DHT22;26586;50.708;22.412;2023-02-28T16:34:05;16.60;32.40
40868;DHT22;26586;50.708;22.412;2023-02-28T16:36:31;16.60;31.80
40868;DHT22;26586;50.708;22.412;2023-02-28T16:38:57;16.50;31.40
40868;DHT22;26586;50.708;22.412;2023-02-28T16:41:27;16.50;32.00
40868;DHT22;26586;50.708;22.412;2023-02-28T16:43:56;16.50;33.40
40868;DHT22;26586;50.708;22.412;2023-02-28T16:46:34;16.50;31.80
40868;DHT22;26586;50.708;22.412;2023-02-28T16:49:01;16.50;31.30
40868;DHT22;26586;50.708;22.412;2023-02-28T16:51:27;16.40;31.30
40868;DHT22;26586;50.708;22.412;2023-02-28T16:53:53;16.40;31.30
40868;DHT22;26586;50.708;22.412;2023-02-28T16:56:22;16.40;31.50
40868;DHT22;26586;50.708;22.412;2023-02-28T16:58:49;16.30;31.50
40868;DHT22;26586;50.708;22.412;2023-02-28T17:01:17;16.30;31.50
40868;DHT22;26586;50.708;22.412;2023-02-28T17:03:48;16.30;31.10
40868;DHT22;26586;50.708;22.412;2023-02-28T17:06:22;16.30;31.20
40868;DHT22;26586;50.708;22.412;2023-02-28T17:08:50;16.20;31.10
40868;DHT22;26586;50.708;22.412;2023-02-28T17:11:16;16.20;31.10
40868;DHT22;26586;50.708;22.412;2023-02-28T17:13:43;16.20;31.30
40868;DHT22;26586;50.708;22.412;2023-02-28T17:18:56;16.20;31.10
40868;DHT22;26586;50.708;22.412;2023-02-28T17:21:23;16.20;33.90
40868;DHT22;26586;50.708;22.412;2023-02-28T17:23:49;16.10;32.30
40868;DHT22;26586;50.708;22.412;2023-02-28T17:26:17;16.10;31.70
40868;DHT22;26586;50.708;22.412;2023-02-28T17:28:47;16.10;32.00
40868;DHT22;26586;50.708;22.412;2023-02-28T17:31:13;16.10;32.40
40868;DHT22;26586;50.708;22.412;2023-02-28T17:33:39;16.10;32.10
40868;DHT22;26586;50.708;22.412;2023-02-28T17:36:06;16.00;32.30
40868;DHT22;26586;50.708;22.412;2023-02-28T17:38:32;16.00;32.10
40868;DHT22;26586;50.708;22.412;2023-02-28T17:40:58;16.00;33.40
40868;DHT22;26586;50.708;22.412;2023-02-28T17:43:26;16.00;33.30
40868;DHT22;26586;50.708;22.412;2023-02-28T17:45:52;16.00;32.30
40868;DHT22;26586;50.708;22.412;2023-02-28T17:48:19;15.90;32.50
40868;DHT22;26586;50.708;22.412;2023-02-28T17:50:45;16.00;32.30
40868;DHT22;26586;50.708;22.412;2023-02-28T17:53:12;15.90;32.20
40868;DHT22;26586;50.708;22.412;2023-02-28T17:55:38;15.90;32.30
40868;DHT22;26586;50.708;22.412;2023-02-28T17:58:04;15.90;32.30
40868;DHT22;26586;50.708;22.412;2023-02-28T18:00:31;15.90;32.40
40868;DHT22;26586;50.708;22.412;2023-02-28T18:02:59;15.80;32.40
40868;DHT22;26586;50.708;22.412;2023-02-28T18:05:26;15.80;32.40
40868;DHT22;26586;50.708;22.412;2023-02-28T18:07:52;15.80;32.40
40868;DHT22;26586;50.708;22.412;2023-02-28T18:10:20;15.80;32.80